sensor_id;sensor_type;location;lat;lon;timestamp;P1;durP1;ratioP1;P2;durP2;ratioP2
1122;SDS011;548;48.778;9.252;2023-08-21T00:01:37;25.40;;;24.20;;
1122;SDS011;548;48.778;9.252;2023-08-21T00:04:03;24.57;;;22.80;;
1122;SDS011;548;48.778;9.252;2023-08-21T00:06:31;24.27;;;22.87;;
1122;SDS011;548;48.778;9.252;2023-08-21T00:09:03;24.37;;;23.03;;
1122;SDS011;548;48.778;9.252;2023-08-21T00:11:30;22.53;;;21.43;;
1122;SDS011;548;48.778;9.252;2023-08-21T00:13:57;24.50;;;23.13;;
1122;SDS011;548;48.778;9.252;2023-08-21T00:16:24;25.53;;;24.13;;
1122;SDS011;548;48.778;9.252;2023-08-21T00:18:53;25.50;;;23.87;;
1122;SDS011;548;48.778;9.252;2023-08-21T00:21:20;25.63;;;24.13;;
1122;SDS011;548;48.778;9.252;2023-08-21T00:23:49;27.00;;;25.20;;
1122;SDS011;548;48.778;9.252;2023-08-21T00:26:17;24.17;;;22.90;;
1122;SDS011;548;48.778;9.252;2023-08-21T00:28:49;23.93;;;22.63;;
1122;SDS011;548;48.778;9.252;2023-08-21T00:31:16;24.80;;;23.50;;
1122;SDS011;548;48.778;9.252;2023-08-21T00:33:45;25.37;;;23.87;;
1122;SDS011;548;48.778;9.252;2023-08-21T00:36:12;26.00;;;24.30;;
1122;SDS011;548;48.778;9.252;2023-08-21T00:38:38;25.00;;;23.40;;
1122;SDS011;548;48.778;9.252;2023-08-21T00:41:06;25.80;;;24.27;;
1122;SDS011;548;48.778;9.252;2023-08-21T00:43:34;25.13;;;23.73;;
1122;SDS011;548;48.778;9.252;2023-08-21T00:46:00;25.53;;;23.70;;
1122;SDS011;548;48.778;9.252;2023-08-21T00:48:28;26.63;;;25.13;;
1122;SDS011;548;48.778;9.252;2023-08-21T00:50:55;26.20;;;24.60;;
1122;SDS011;548;48.778;9.252;2023-08-21T00:53:22;26.83;;;25.00;;
1122;SDS011;548;48.778;9.252;2023-08-21T00:55:49;25.13;;;23.83;;
1122;SDS011;548;48.778;9.252;2023-08-21T00:58:16;25.23;;;23.83;;
1122;SDS011;548;48.778;9.252;2023-08-21T01:00:45;25.40;;;23.80;;
1122;SDS011;548;48.778;9.252;2023-08-21T01:03:15;24.87;;;23.40;;
1122;SDS011;548;48.778;9.252;2023-08-21T01:05:41;25.70;;;24.10;;
1122;SDS011;548;48.778;9.252;2023-08-21T01:08:10;25.27;;;23.47;;
1122;SDS011;548;48.778;9.252;2023-08-21T01:10:43;25.60;;;24.30;;
1122;SDS011;548;48.778;9.252;2023-08-21T01:13:19;26.10;;;24.50;;
1122;SDS011;548;48.778;9.252;2023-08-21T01:15:57;25.77;;;24.33;;
1122;SDS011;548;48.778;9.252;2023-08-21T01:18:25;25.10;;;23.60;;
1122;SDS011;548;48.778;9.252;2023-08-21T01:20:54;26.00;;;24.33;;
1122;SDS011;548;48.778;9.252;2023-08-21T01:23:32;26.40;;;24.97;;
1122;SDS011;548;48.778;9.252;2023-08-21T01:26:00;27.17;;;25.67;;
1122;SDS011;548;48.778;9.252;2023-08-21T01:28:27;24.93;;;23.47;;
1122;SDS011;548;48.778;9.252;2023-08-21T01:30:57;25.57;;;24.07;;
1122;SDS011;548;48.778;9.252;2023-08-21T01:33:29;25.83;;;24.43;;
1122;SDS011;548;48.778;9.252;2023-08-21T01:35:59;25.57;;;24.27;;
1122;SDS011;548;48.778;9.252;2023-08-21T01:38:30;26.07;;;24.50;;
1122;SDS011;548;48.778;9.252;2023-08-21T01:41:00;26.27;;;24.43;;
1122;SDS011;548;48.778;9.252;2023-08-21T01:43:27;26.27;;;24.67;;
1122;SDS011;548;48.778;9.252;2023-08-21T01:45:54;24.30;;;23.10;;
1122;SDS011;548;48.778;9.252;2023-08-21T01:48:20;27.23;;;25.83;;
1122;SDS011;548;48.778;9.252;2023-08-21T01:50:47;28.40;;;26.70;;
1122;SDS011;548;48.778;9.252;2023-08-21T01:53:14;26.10;;;24.53;;
1122;SDS011;548;48.778;9.252;2023-08-21T01:55:42;27.33;;;25.70;;
1122;SDS011;548;48.778;9.252;2023-08-21T01:58:09;28.23;;;26.43;;
1122;SDS011;548;48.778;9.252;2023-08-21T02:00:35;29.40;;;27.30;;
1122;SDS011;548;48.778;9.252;2023-08-21T02:03:02;27.33;;;25.53;;
1122;SDS011;548;48.778;9.252;2023-08-21T02:05:29;28.27;;;26.17;;
1122;SDS011;548;48.778;9.252;2023-08-21T02:07:56;27.30;;;25.73;;
1122;SDS011;548;48.778;9.252;2023-08-21T02:10:22;27.57;;;25.93;;
1122;SDS011;548;48.778;9.252;2023-08-21T02:12:50;27.23;;;25.43;;
1122;SDS011;548;48.778;9.252;2023-08-21T02:15:19;25.27;;;23.83;;
1122;SDS011;548;48.778;9.252;2023-08-21T02:17:47;25.33;;;23.93;;
1122;SDS011;548;48.778;9.252;2023-08-21T02:20:13;26.33;;;24.77;;
1122;SDS011;548;48.778;9.252;2023-08-21T02:22:40;28.30;;;26.40;;
1122;SDS011;548;48.778;9.252;2023-08-21T02:25:07;26.80;;;25.17;;
1122;SDS011;548;48.778;9.252;2023-08-21T02:27:34;26.20;;;24.80;;
1122;SDS011;548;48.778;9.252;2023-08-21T02:30:02;26.90;;;25.10;;
1122;SDS011;548;48.778;9.252;2023-08-21T02:32:29;27.20;;;25.70;;
1122;SDS011;548;48.778;9.252;2023-08-21T02:34:56;26.97;;;25.23;;
1122;SDS011;548;48.778;9.252;2023-08-21T02:37:23;26.77;;;25.27;;
1122;SDS011;548;48.778;9.252;2023-08-21T02:39:49;27.47;;;25.90;;
1122;SDS011;548;48.778;9.252;2023-08-21T02:42:16;27.93;;;26.37;;
1122;SDS011;548;48.778;9.252;2023-08-21T02:44:43;26.73;;;25.07;;
1122;SDS011;548;48.778;9.252;2023-08-21T02:47:11;28.63;;;27.00;;
1122;SDS011;548;48.778;9.252;2023-08-21T02:49:37;26.40;;;25.00;;
1122;SDS011;548;48.778;9.252;2023-08-21T02:52:04;26.60;;;25.10;;
1122;SDS011;548;48.778;9.252;2023-08-21T02:54:31;26.70;;;25.10;;
1122;SDS011;548;48.778;9.252;2023-08-21T02:56:58;27.77;;;26.27;;
1122;SDS011;548;48.778;9.252;2023-08-21T02:59:24;26.37;;;24.97;;
1122;SDS011;548;48.778;9.252;2023-08-21T03:01:51;27.53;;;25.90;;
1122;SDS011;548;48.778;9.252;2023-08-21T03:04:19;27.80;;;26.30;;
1122;SDS011;548;48.778;9.252;2023-08-21T03:06:46;27.20;;;25.63;;
1122;SDS011;548;48.778;9.252;2023-08-21T03:09:13;27.23;;;25.70;;
1122;SDS011;548;48.778;9.252;2023-08-21T03:11:40;27.60;;;25.90;;
1122;SDS011;548;48.778;9.252;2023-08-21T03:14:06;29.83;;;27.20;;
1122;SDS011;548;48.778;9.252;2023-08-21T03:16:33;28.30;;;26.80;;
1122;SDS011;548;48.778;9.252;2023-08-21T03:19:00;28.07;;;26.17;;
1122;SDS011;548;48.778;9.252;2023-08-21T03:21:28;29.87;;;27.97;;
1122;SDS011;548;48.778;9.252;2023-08-21T03:23:55;27.93;;;26.43;;
1122;SDS011;548;48.778;9.252;2023-08-21T03:26:24;29.37;;;27.67;;
1122;SDS011;548;48.778;9.252;2023-08-21T03:28:51;29.40;;;27.70;;
1122;SDS011;548;48.778;9.252;2023-08-21T03:31:18;28.87;;;26.90;;
1122;SDS011;548;48.778;9.252;2023-08-21T03:33:45;28.40;;;26.90;;
1122;SDS011;548;48.778;9.252;2023-08-21T03:36:12;29.83;;;27.90;;
1122;SDS011;548;48.778;9.252;2023-08-21T03:38:40;28.90;;;27.10;;
1122;SDS011;548;48.778;9.252;2023-08-21T03:41:07;27.77;;;26.27;;
1122;SDS011;548;48.778;9.252;2023-08-21T03:43:34;28.03;;;26.30;;
1122;SDS011;548;48.778;9.252;2023-08-21T03:46:00;29.73;;;27.90;;
1122;SDS011;548;48.778;9.252;2023-08-21T03:48:27;29.17;;;27.43;;
1122;SDS011;548;48.778;9.252;2023-08-21T03:50:54;27.70;;;26.07;;
1122;SDS011;548;48.778;9.252;2023-08-21T03:53:20;29.97;;;28.17;;
1122;SDS011;548;48.778;9.252;2023-08-21T03:55:48;28.33;;;26.73;;
1122;SDS011;548;48.778;9.252;2023-08-21T03:58:15;29.77;;;27.97;;
1122;SDS011;548;48.778;9.252;2023-08-21T04:00:42;27.50;;;25.90;;
1122;SDS011;548;48.778;9.252;2023-08-21T04:03:08;29.67;;;27.93;;
1122;SDS011;548;48.778;9.252;2023-08-21T04:05:35;30.30;;;28.50;;
1122;SDS011;548;48.778;9.252;2023-08-21T04:08:03;27.73;;;26.33;;
1122;SDS011;548;48.778;9.252;2023-08-21T04:10:30;29.30;;;27.50;;
1122;SDS011;548;48.778;9.252;2023-08-21T04:12:58;29.20;;;27.60;;
1122;SDS011;548;48.778;9.252;2023-08-21T04:15:25;29.90;;;28.10;;
1122;SDS011;548;48.778;9.252;2023-08-21T04:17:52;29.33;;;27.60;;
1122;SDS011;548;48.778;9.252;2023-08-21T04:20:19;29.90;;;28.10;;
1122;SDS011;548;48.778;9.252;2023-08-21T04:22:46;30.43;;;28.43;;
1122;SDS011;548;48.778;9.252;2023-08-21T04:25:13;30.27;;;28.60;;
1122;SDS011;548;48.778;9.252;2023-08-21T04:27:40;30.47;;;28.80;;
1122;SDS011;548;48.778;9.252;2023-08-21T04:30:09;31.70;;;29.60;;
1122;SDS011;548;48.778;9.252;2023-08-21T04:32:36;31.73;;;29.63;;
1122;SDS011;548;48.778;9.252;2023-08-21T04:35:03;30.83;;;29.03;;
1122;SDS011;548;48.778;9.252;2023-08-21T04:37:31;32.37;;;30.07;;
1122;SDS011;548;48.778;9.252;2023-08-21T04:39:57;30.53;;;28.67;;
1122;SDS011;548;48.778;9.252;2023-08-21T04:42:24;31.77;;;29.37;;
1122;SDS011;548;48.778;9.252;2023-08-21T04:44:51;32.70;;;30.40;;
1122;SDS011;548;48.778;9.252;2023-08-21T04:47:20;29.03;;;27.43;;
1122;SDS011;548;48.778;9.252;2023-08-21T04:49:47;30.83;;;28.53;;
1122;SDS011;548;48.778;9.252;2023-08-21T04:52:14;30.50;;;28.60;;
1122;SDS011;548;48.778;9.252;2023-08-21T04:54:41;30.07;;;28.23;;
1122;SDS011;548;48.778;9.252;2023-08-21T04:57:07;31.00;;;29.20;;
1122;SDS011;548;48.778;9.252;2023-08-21T04:59:34;29.53;;;27.43;;
1122;SDS011;548;48.778;9.252;2023-08-21T05:02:01;29.80;;;28.10;;
1122;SDS011;548;48.778;9.252;2023-08-21T05:04:29;29.23;;;27.50;;
1122;SDS011;548;48.778;9.252;2023-08-21T05:06:56;30.20;;;28.30;;
1122;SDS011;548;48.778;9.252;2023-08-21T05:09:23;29.40;;;27.70;;
1122;SDS011;548;48.778;9.252;2023-08-21T05:11:49;31.80;;;29.60;;
1122;SDS011;548;48.778;9.252;2023-08-21T05:14:16;28.63;;;27.13;;
1122;SDS011;548;48.778;9.252;2023-08-21T05:16:44;29.50;;;27.87;;
1122;SDS011;548;48.778;9.252;2023-08-21T05:19:11;31.13;;;28.90;;
1122;SDS011;548;48.778;9.252;2023-08-21T05:21:39;30.33;;;28.33;;
1122;SDS011;548;48.778;9.252;2023-08-21T05:24:06;30.13;;;28.43;;
1122;SDS011;548;48.778;9.252;2023-08-21T05:26:34;30.03;;;28.23;;
1122;SDS011;548;48.778;9.252;2023-08-21T05:29:01;28.57;;;26.47;;
1122;SDS011;548;48.778;9.252;2023-08-21T05:31:28;26.53;;;24.83;;
1122;SDS011;548;48.778;9.252;2023-08-21T05:33:55;27.87;;;25.77;;
1122;SDS011;548;48.778;9.252;2023-08-21T05:36:21;28.10;;;26.30;;
1122;SDS011;548;48.778;9.252;2023-08-21T05:38:49;27.07;;;25.57;;
1122;SDS011;548;48.778;9.252;2023-08-21T05:41:16;26.40;;;24.90;;
1122;SDS011;548;48.778;9.252;2023-08-21T05:43:43;27.07;;;25.30;;
1122;SDS011;548;48.778;9.252;2023-08-21T05:46:10;28.30;;;26.60;;
1122;SDS011;548;48.778;9.252;2023-08-21T05:48:37;27.13;;;25.20;;
1122;SDS011;548;48.778;9.252;2023-08-21T05:51:04;27.50;;;25.67;;
1122;SDS011;548;48.778;9.252;2023-08-21T05:53:31;26.63;;;24.90;;
1122;SDS011;548;48.778;9.252;2023-08-21T05:55:59;26.70;;;25.03;;
1122;SDS011;548;48.778;9.252;2023-08-21T05:58:25;27.80;;;25.97;;
1122;SDS011;548;48.778;9.252;2023-08-21T06:00:55;26.27;;;24.60;;
1122;SDS011;548;48.778;9.252;2023-08-21T06:03:22;25.33;;;23.63;;
1122;SDS011;548;48.778;9.252;2023-08-21T06:05:48;26.00;;;24.20;;
1122;SDS011;548;48.778;9.252;2023-08-21T06:08:15;26.70;;;24.83;;
1122;SDS011;548;48.778;9.252;2023-08-21T06:10:43;25.97;;;24.57;;
1122;SDS011;548;48.778;9.252;2023-08-21T06:13:11;24.13;;;22.70;;
1122;SDS011;548;48.778;9.252;2023-08-21T06:15:37;26.33;;;24.53;;
1122;SDS011;548;48.778;9.252;2023-08-21T06:18:04;24.83;;;23.33;;
1122;SDS011;548;48.778;9.252;2023-08-21T06:20:31;25.43;;;23.57;;
1122;SDS011;548;48.778;9.252;2023-08-21T06:22:57;26.27;;;24.80;;
1122;SDS011;548;48.778;9.252;2023-08-21T06:25:24;27.20;;;25.10;;
1122;SDS011;548;48.778;9.252;2023-08-21T06:27:51;24.87;;;23.23;;
1122;SDS011;548;48.778;9.252;2023-08-21T06:30:19;26.63;;;25.03;;
1122;SDS011;548;48.778;9.252;2023-08-21T06:32:46;24.13;;;22.70;;
1122;SDS011;548;48.778;9.252;2023-08-21T06:35:12;24.47;;;22.97;;
1122;SDS011;548;48.778;9.252;2023-08-21T06:37:40;24.37;;;22.90;;
1122;SDS011;548;48.778;9.252;2023-08-21T06:40:07;23.53;;;22.23;;
1122;SDS011;548;48.778;9.252;2023-08-21T06:42:34;24.53;;;23.00;;
1122;SDS011;548;48.778;9.252;2023-08-21T06:45:02;22.40;;;21.07;;
1122;SDS011;548;48.778;9.252;2023-08-21T06:47:32;22.90;;;21.60;;
1122;SDS011;548;48.778;9.252;2023-08-21T06:49:58;22.73;;;21.33;;
1122;SDS011;548;48.778;9.252;2023-08-21T06:52:25;22.33;;;21.03;;
1122;SDS011;548;48.778;9.252;2023-08-21T06:54:52;22.20;;;20.90;;
1122;SDS011;548;48.778;9.252;2023-08-21T06:57:19;22.77;;;21.50;;
1122;SDS011;548;48.778;9.252;2023-08-21T06:59:45;20.70;;;19.70;;
1122;SDS011;548;48.778;9.252;2023-08-21T07:02:12;22.10;;;20.90;;
1122;SDS011;548;48.778;9.252;2023-08-21T07:04:40;22.87;;;21.53;;
1122;SDS011;548;48.778;9.252;2023-08-21T07:07:07;22.97;;;21.67;;
1122;SDS011;548;48.778;9.252;2023-08-21T07:09:33;22.03;;;20.83;;
1122;SDS011;548;48.778;9.252;2023-08-21T07:12:00;22.03;;;20.93;;
1122;SDS011;548;48.778;9.252;2023-08-21T07:14:30;22.03;;;20.67;;
1122;SDS011;548;48.778;9.252;2023-08-21T07:17:07;23.40;;;22.10;;
1122;SDS011;548;48.778;9.252;2023-08-21T07:19:33;22.27;;;21.13;;
1122;SDS011;548;48.778;9.252;2023-08-21T07:22:01;20.87;;;19.87;;
1122;SDS011;548;48.778;9.252;2023-08-21T07:24:28;23.30;;;22.00;;
1122;SDS011;548;48.778;9.252;2023-08-21T07:26:55;22.87;;;21.73;;
1122;SDS011;548;48.778;9.252;2023-08-21T07:29:21;23.13;;;21.90;;
1122;SDS011;548;48.778;9.252;2023-08-21T07:31:48;21.53;;;20.43;;
1122;SDS011;548;48.778;9.252;2023-08-21T07:34:15;24.00;;;22.70;;
1122;SDS011;548;48.778;9.252;2023-08-21T07:36:41;22.73;;;21.53;;
1122;SDS011;548;48.778;9.252;2023-08-21T07:39:09;21.57;;;20.57;;
1122;SDS011;548;48.778;9.252;2023-08-21T07:41:36;22.70;;;21.47;;
1122;SDS011;548;48.778;9.252;2023-08-21T07:44:03;22.00;;;20.90;;
1122;SDS011;548;48.778;9.252;2023-08-21T07:46:30;24.03;;;22.63;;
1122;SDS011;548;48.778;9.252;2023-08-21T07:48:57;24.27;;;22.70;;
1122;SDS011;548;48.778;9.252;2023-08-21T07:51:23;23.70;;;22.40;;
1122;SDS011;548;48.778;9.252;2023-08-21T07:53:50;23.00;;;21.70;;
1122;SDS011;548;48.778;9.252;2023-08-21T07:56:18;23.93;;;22.60;;
1122;SDS011;548;48.778;9.252;2023-08-21T07:58:45;23.57;;;22.23;;
1122;SDS011;548;48.778;9.252;2023-08-21T08:01:11;22.30;;;21.10;;
1122;SDS011;548;48.778;9.252;2023-08-21T08:03:38;22.03;;;21.03;;
1122;SDS011;548;48.778;9.252;2023-08-21T08:06:05;24.13;;;22.80;;
1122;SDS011;548;48.778;9.252;2023-08-21T08:08:31;22.87;;;21.77;;
1122;SDS011;548;48.778;9.252;2023-08-21T08:11:00;21.33;;;20.23;;
1122;SDS011;548;48.778;9.252;2023-08-21T08:13:29;22.70;;;21.70;;
1122;SDS011;548;48.778;9.252;2023-08-21T08:15:57;22.90;;;21.60;;
1122;SDS011;548;48.778;9.252;2023-08-21T08:18:24;22.73;;;21.63;;
1122;SDS011;548;48.778;9.252;2023-08-21T08:20:51;24.23;;;22.93;;
1122;SDS011;548;48.778;9.252;2023-08-21T08:23:19;23.50;;;22.43;;
1122;SDS011;548;48.778;9.252;2023-08-21T08:25:45;24.37;;;22.50;;
1122;SDS011;548;48.778;9.252;2023-08-21T08:28:13;23.43;;;22.33;;
1122;SDS011;548;48.778;9.252;2023-08-21T08:30:41;25.47;;;24.27;;
1122;SDS011;548;48.778;9.252;2023-08-21T08:33:07;26.33;;;25.00;;
1122;SDS011;548;48.778;9.252;2023-08-21T08:35:34;25.00;;;23.70;;
1122;SDS011;548;48.778;9.252;2023-08-21T08:38:01;23.63;;;22.43;;
1122;SDS011;548;48.778;9.252;2023-08-21T08:40:28;25.10;;;23.70;;
1122;SDS011;548;48.778;9.252;2023-08-21T08:42:55;25.47;;;24.00;;
1122;SDS011;548;48.778;9.252;2023-08-21T08:45:23;26.40;;;24.90;;
1122;SDS011;548;48.778;9.252;2023-08-21T08:47:57;25.73;;;24.50;;
1122;SDS011;548;48.778;9.252;2023-08-21T08:50:25;25.00;;;23.50;;
1122;SDS011;548;48.778;9.252;2023-08-21T08:52:55;25.50;;;24.10;;
1122;SDS011;548;48.778;9.252;2023-08-21T08:55:22;23.37;;;22.13;;
1122;SDS011;548;48.778;9.252;2023-08-21T08:57:51;25.60;;;24.03;;
1122;SDS011;548;48.778;9.252;2023-08-21T09:00:18;25.50;;;24.17;;
1122;SDS011;548;48.778;9.252;2023-08-21T09:02:46;23.83;;;22.73;;
1122;SDS011;548;48.778;9.252;2023-08-21T09:05:15;26.67;;;25.20;;
1122;SDS011;548;48.778;9.252;2023-08-21T09:07:42;23.97;;;22.70;;
1122;SDS011;548;48.778;9.252;2023-08-21T09:10:12;24.80;;;23.60;;
1122;SDS011;548;48.778;9.252;2023-08-21T09:12:40;24.23;;;22.93;;
1122;SDS011;548;48.778;9.252;2023-08-21T09:15:07;24.70;;;23.60;;
1122;SDS011;548;48.778;9.252;2023-08-21T09:17:34;25.63;;;24.13;;
1122;SDS011;548;48.778;9.252;2023-08-21T09:20:04;24.47;;;23.00;;
1122;SDS011;548;48.778;9.252;2023-08-21T09:22:33;25.23;;;24.00;;
1122;SDS011;548;48.778;9.252;2023-08-21T09:25:00;24.00;;;22.73;;
1122;SDS011;548;48.778;9.252;2023-08-21T09:27:31;25.33;;;24.03;;
1122;SDS011;548;48.778;9.252;2023-08-21T09:29:58;24.13;;;23.00;;
1122;SDS011;548;48.778;9.252;2023-08-21T09:32:26;23.80;;;22.80;;
1122;SDS011;548;48.778;9.252;2023-08-21T09:34:52;22.47;;;21.43;;
1122;SDS011;548;48.778;9.252;2023-08-21T09:37:19;21.77;;;20.73;;
1122;SDS011;548;48.778;9.252;2023-08-21T09:39:47;22.50;;;21.50;;
1122;SDS011;548;48.778;9.252;2023-08-21T09:42:14;24.57;;;23.17;;
1122;SDS011;548;48.778;9.252;2023-08-21T09:44:41;21.93;;;21.00;;
1122;SDS011;548;48.778;9.252;2023-08-21T09:47:09;23.73;;;22.73;;
1122;SDS011;548;48.778;9.252;2023-08-21T09:49:37;24.80;;;23.37;;
1122;SDS011;548;48.778;9.252;2023-08-21T09:52:05;23.57;;;22.40;;
1122;SDS011;548;48.778;9.252;2023-08-21T09:54:35;23.70;;;22.60;;
1122;SDS011;548;48.778;9.252;2023-08-21T09:57:03;24.13;;;22.90;;
1122;SDS011;548;48.778;9.252;2023-08-21T09:59:30;23.40;;;22.30;;
1122;SDS011;548;48.778;9.252;2023-08-21T10:01:58;25.10;;;24.00;;
1122;SDS011;548;48.778;9.252;2023-08-21T10:04:27;25.67;;;24.47;;
1122;SDS011;548;48.778;9.252;2023-08-21T10:06:56;23.70;;;22.60;;
1122;SDS011;548;48.778;9.252;2023-08-21T10:09:24;22.40;;;21.43;;
1122;SDS011;548;48.778;9.252;2023-08-21T10:11:51;23.80;;;22.80;;
1122;SDS011;548;48.778;9.252;2023-08-21T10:14:21;23.23;;;22.13;;
1122;SDS011;548;48.778;9.252;2023-08-21T10:16:48;24.03;;;22.83;;
1122;SDS011;548;48.778;9.252;2023-08-21T10:19:16;23.60;;;22.33;;
1122;SDS011;548;48.778;9.252;2023-08-21T10:21:44;24.90;;;23.37;;
1122;SDS011;548;48.778;9.252;2023-08-21T10:24:14;22.07;;;20.87;;
1122;SDS011;548;48.778;9.252;2023-08-21T10:26:52;23.43;;;22.13;;
1122;SDS011;548;48.778;9.252;2023-08-21T10:29:20;23.50;;;22.50;;
1122;SDS011;548;48.778;9.252;2023-08-21T10:31:47;22.80;;;21.90;;
1122;SDS011;548;48.778;9.252;2023-08-21T10:34:30;24.30;;;22.93;;
1122;SDS011;548;48.778;9.252;2023-08-21T10:37:09;23.27;;;22.17;;
1122;SDS011;548;48.778;9.252;2023-08-21T10:39:37;23.83;;;22.60;;
1122;SDS011;548;48.778;9.252;2023-08-21T10:42:08;24.30;;;22.90;;
1122;SDS011;548;48.778;9.252;2023-08-21T10:44:50;25.15;;;23.95;;
1122;SDS011;548;48.778;9.252;2023-08-21T10:47:21;23.15;;;22.25;;
1122;SDS011;548;48.778;9.252;2023-08-21T10:49:49;23.40;;;22.40;;
1122;SDS011;548;48.778;9.252;2023-08-21T10:52:20;24.70;;;23.60;;
1122;SDS011;548;48.778;9.252;2023-08-21T10:54:48;24.48;;;23.27;;
1122;SDS011;548;48.778;9.252;2023-08-21T10:57:16;24.23;;;22.95;;
1122;SDS011;548;48.778;9.252;2023-08-21T10:59:57;23.02;;;21.77;;
1122;SDS011;548;48.778;9.252;2023-08-21T11:02:25;24.02;;;23.13;;
1122;SDS011;548;48.778;9.252;2023-08-21T11:04:54;25.20;;;23.75;;
1122;SDS011;548;48.778;9.252;2023-08-21T11:07:21;25.38;;;24.27;;
1122;SDS011;548;48.778;9.252;2023-08-21T11:09:48;24.80;;;23.60;;
1122;SDS011;548;48.778;9.252;2023-08-21T11:12:15;23.58;;;22.40;;
1122;SDS011;548;48.778;9.252;2023-08-21T11:14:43;26.03;;;24.57;;
1122;SDS011;548;48.778;9.252;2023-08-21T11:17:11;22.77;;;21.83;;
1122;SDS011;548;48.778;9.252;2023-08-21T11:19:39;24.27;;;23.27;;
1122;SDS011;548;48.778;9.252;2023-08-21T11:22:07;23.63;;;22.10;;
1122;SDS011;548;48.778;9.252;2023-08-21T11:24:40;23.80;;;22.57;;
1122;SDS011;548;48.778;9.252;2023-08-21T11:27:09;24.93;;;23.73;;
1122;SDS011;548;48.778;9.252;2023-08-21T11:29:38;25.90;;;24.20;;
1122;SDS011;548;48.778;9.252;2023-08-21T11:34:51;24.07;;;22.90;;
1122;SDS011;548;48.778;9.252;2023-08-21T11:37:20;23.13;;;22.13;;
1122;SDS011;548;48.778;9.252;2023-08-21T11:39:47;22.97;;;21.70;;
1122;SDS011;548;48.778;9.252;2023-08-21T11:42:15;23.20;;;22.23;;
1122;SDS011;548;48.778;9.252;2023-08-21T11:44:43;24.30;;;23.10;;
1122;SDS011;548;48.778;9.252;2023-08-21T11:47:11;23.27;;;22.10;;
1122;SDS011;548;48.778;9.252;2023-08-21T11:49:41;22.20;;;21.20;;
1122;SDS011;548;48.778;9.252;2023-08-21T11:52:09;23.07;;;21.90;;
1122;SDS011;548;48.778;9.252;2023-08-21T11:54:37;23.93;;;22.53;;
1122;SDS011;548;48.778;9.252;2023-08-21T11:57:06;23.40;;;22.40;;
1122;SDS011;548;48.778;9.252;2023-08-21T11:59:33;23.80;;;22.67;;
1122;SDS011;548;48.778;9.252;2023-08-21T12:02:01;22.90;;;21.70;;
1122;SDS011;548;48.778;9.252;2023-08-21T12:04:34;26.03;;;24.43;;
1122;SDS011;548;48.778;9.252;2023-08-21T12:07:03;23.47;;;22.27;;
1122;SDS011;548;48.778;9.252;2023-08-21T12:09:29;25.60;;;24.30;;
1122;SDS011;548;48.778;9.252;2023-08-21T12:11:56;23.13;;;22.13;;
1122;SDS011;548;48.778;9.252;2023-08-21T12:14:23;23.23;;;22.03;;
1122;SDS011;548;48.778;9.252;2023-08-21T12:16:50;25.23;;;24.13;;
1122;SDS011;548;48.778;9.252;2023-08-21T12:19:16;22.47;;;21.47;;
1122;SDS011;548;48.778;9.252;2023-08-21T12:21:44;21.75;;;20.85;;
1122;SDS011;548;48.778;9.252;2023-08-21T12:24:12;22.52;;;21.73;;
1122;SDS011;548;48.778;9.252;2023-08-21T12:26:39;25.80;;;24.52;;
1122;SDS011;548;48.778;9.252;2023-08-21T12:29:10;24.63;;;23.42;;
1122;SDS011;548;48.778;9.252;2023-08-21T12:31:37;22.85;;;21.52;;
1122;SDS011;548;48.778;9.252;2023-08-21T12:34:09;25.73;;;24.52;;
1122;SDS011;548;48.778;9.252;2023-08-21T12:36:36;25.02;;;23.92;;
1122;SDS011;548;48.778;9.252;2023-08-21T12:39:03;25.60;;;24.40;;
1122;SDS011;548;48.778;9.252;2023-08-21T12:41:32;23.23;;;21.70;;
1122;SDS011;548;48.778;9.252;2023-08-21T12:44:01;24.30;;;23.10;;
1122;SDS011;548;48.778;9.252;2023-08-21T12:46:33;23.40;;;22.10;;
1122;SDS011;548;48.778;9.252;2023-08-21T12:49:00;24.50;;;23.23;;
1122;SDS011;548;48.778;9.252;2023-08-21T12:51:28;23.73;;;22.60;;
1122;SDS011;548;48.778;9.252;2023-08-21T12:53:54;24.77;;;23.37;;
1122;SDS011;548;48.778;9.252;2023-08-21T12:56:22;23.17;;;22.00;;
1122;SDS011;548;48.778;9.252;2023-08-21T12:58:55;23.00;;;22.00;;
1122;SDS011;548;48.778;9.252;2023-08-21T13:01:25;23.50;;;22.17;;
1122;SDS011;548;48.778;9.252;2023-08-21T13:03:52;22.77;;;21.53;;
1122;SDS011;548;48.778;9.252;2023-08-21T13:06:19;21.33;;;20.33;;
1122;SDS011;548;48.778;9.252;2023-08-21T13:08:48;20.97;;;19.97;;
1122;SDS011;548;48.778;9.252;2023-08-21T13:11:15;21.87;;;20.77;;
1122;SDS011;548;48.778;9.252;2023-08-21T13:13:42;21.73;;;20.33;;
1122;SDS011;548;48.778;9.252;2023-08-21T13:16:10;21.90;;;20.70;;
1122;SDS011;548;48.778;9.252;2023-08-21T13:18:37;22.23;;;21.03;;
1122;SDS011;548;48.778;9.252;2023-08-21T13:21:04;21.83;;;20.80;;
1122;SDS011;548;48.778;9.252;2023-08-21T13:23:32;20.53;;;19.63;;
1122;SDS011;548;48.778;9.252;2023-08-21T13:25:59;21.70;;;20.50;;
1122;SDS011;548;48.778;9.252;2023-08-21T13:28:27;22.17;;;21.17;;
1122;SDS011;548;48.778;9.252;2023-08-21T13:30:56;20.70;;;19.57;;
1122;SDS011;548;48.778;9.252;2023-08-21T13:33:24;19.17;;;18.20;;
1122;SDS011;548;48.778;9.252;2023-08-21T13:35:51;22.93;;;21.60;;
1122;SDS011;548;48.778;9.252;2023-08-21T13:38:18;21.00;;;19.80;;
1122;SDS011;548;48.778;9.252;2023-08-21T13:40:45;20.83;;;19.40;;
1122;SDS011;548;48.778;9.252;2023-08-21T13:43:12;19.83;;;18.73;;
1122;SDS011;548;48.778;9.252;2023-08-21T13:45:39;21.20;;;20.10;;
1122;SDS011;548;48.778;9.252;2023-08-21T13:48:06;20.53;;;19.20;;
1122;SDS011;548;48.778;9.252;2023-08-21T13:50:34;21.40;;;20.00;;
1122;SDS011;548;48.778;9.252;2023-08-21T13:53:07;20.40;;;19.40;;
1122;SDS011;548;48.778;9.252;2023-08-21T13:55:36;20.67;;;19.60;;
1122;SDS011;548;48.778;9.252;2023-08-21T13:58:03;21.93;;;20.50;;
1122;SDS011;548;48.778;9.252;2023-08-21T14:00:40;21.30;;;20.20;;
1122;SDS011;548;48.778;9.252;2023-08-21T14:09:57;21.07;;;19.67;;
1122;SDS011;548;48.778;9.252;2023-08-21T14:12:25;23.27;;;22.17;;
1122;SDS011;548;48.778;9.252;2023-08-21T14:14:51;20.17;;;19.10;;
1122;SDS011;548;48.778;9.252;2023-08-21T14:17:18;21.67;;;20.60;;
1122;SDS011;548;48.778;9.252;2023-08-21T14:19:45;21.63;;;20.63;;
1122;SDS011;548;48.778;9.252;2023-08-21T14:22:12;20.57;;;19.50;;
1122;SDS011;548;48.778;9.252;2023-08-21T14:24:40;20.50;;;19.40;;
1122;SDS011;548;48.778;9.252;2023-08-21T14:30:30;20.23;;;19.20;;
1122;SDS011;548;48.778;9.252;2023-08-21T14:46:54;20.80;;;19.50;;
1122;SDS011;548;48.778;9.252;2023-08-21T14:52:46;19.47;;;18.60;;
1122;SDS011;548;48.778;9.252;2023-08-21T14:58:40;19.97;;;18.87;;
1122;SDS011;548;48.778;9.252;2023-08-21T15:11:16;20.60;;;19.60;;
1122;SDS011;548;48.778;9.252;2023-08-21T15:16:46;18.93;;;17.67;;
1122;SDS011;548;48.778;9.252;2023-08-21T15:19:16;19.13;;;18.13;;
1122;SDS011;548;48.778;9.252;2023-08-21T15:21:46;19.63;;;18.53;;
1122;SDS011;548;48.778;9.252;2023-08-21T15:24:13;21.40;;;20.10;;
1122;SDS011;548;48.778;9.252;2023-08-21T15:26:50;20.90;;;19.80;;
1122;SDS011;548;48.778;9.252;2023-08-21T15:32:39;20.67;;;19.60;;
1122;SDS011;548;48.778;9.252;2023-08-21T15:35:12;19.60;;;18.70;;
1122;SDS011;548;48.778;9.252;2023-08-21T15:37:39;19.40;;;18.30;;
1122;SDS011;548;48.778;9.252;2023-08-21T15:46:52;20.90;;;19.80;;
1122;SDS011;548;48.778;9.252;2023-08-21T15:52:41;21.03;;;19.70;;
1122;SDS011;548;48.778;9.252;2023-08-21T15:55:08;19.93;;;18.93;;
1122;SDS011;548;48.778;9.252;2023-08-21T15:57:35;19.70;;;18.50;;
1122;SDS011;548;48.778;9.252;2023-08-21T16:00:02;20.90;;;19.70;;
1122;SDS011;548;48.778;9.252;2023-08-21T16:36:13;19.03;;;18.03;;
1122;SDS011;548;48.778;9.252;2023-08-21T16:38:53;19.67;;;18.53;;